createdAt,value
2018-10-06T00:01:24.406Z,81.54
2018-10-06T00:03:53.198Z,81.42
2018-10-06T00:06:22.081Z,81.87
2018-10-06T00:08:51.182Z,81.84
2018-10-06T00:11:21.040Z,82.54
2018-10-06T00:13:49.980Z,81.55
2018-10-06T00:16:18.847Z,81.87
2018-10-06T00:18:47.630Z,82.42
2018-10-06T00:21:16.631Z,82.38
2018-10-06T00:23:45.350Z,82.54
2018-10-06T00:26:13.983Z,82.17
2018-10-06T00:28:42.671Z,82.69
2018-10-06T00:31:11.339Z,83.13
2018-10-06T00:33:40.054Z,82.67
2018-10-06T00:36:08.698Z,83.21
2018-10-06T00:38:37.271Z,83.55
2018-10-06T00:41:06.131Z,82.71
2018-10-06T00:43:34.713Z,82.27
2018-10-06T00:46:03.301Z,83.20
2018-10-06T00:48:32.017Z,83.07
2018-10-06T00:51:00.772Z,83.12
2018-10-06T00:53:29.517Z,83.18
2018-10-06T00:58:34.042Z,84.33
2018-10-06T01:01:03.782Z,84.09
2018-10-06T01:03:32.553Z,84.64
2018-10-06T01:06:01.367Z,84.74
2018-10-06T01:08:30.302Z,85.15
2018-10-06T01:10:59.523Z,84.77
2018-10-06T01:13:28.189Z,84.38
2018-10-06T01:15:56.909Z,85.01
2018-10-06T01:18:25.518Z,84.64
2018-10-06T01:20:54.269Z,84.01
2018-10-06T01:23:22.891Z,84.42
2018-10-06T01:25:51.613Z,83.94
2018-10-06T01:28:20.380Z,83.76
2018-10-06T01:30:48.933Z,83.79
2018-10-06T01:33:17.538Z,84.25
2018-10-06T01:35:46.175Z,84.62
2018-10-06T01:38:14.875Z,84.16
2018-10-06T01:40:43.622Z,84.46
2018-10-06T01:43:12.550Z,84.10
2018-10-06T01:45:41.193Z,84.74
2018-10-06T01:48:09.787Z,84.62
2018-10-06T01:50:38.567Z,83.73
2018-10-06T01:53:07.245Z,84.37
2018-10-06T01:55:35.877Z,84.78
2018-10-06T01:58:05.722Z,84.69
2018-10-06T02:00:34.659Z,83.79
2018-10-06T02:03:03.651Z,83.49
2018-10-06T02:05:33.226Z,83.54
2018-10-06T02:08:02.008Z,83.75
2018-10-06T02:10:31.000Z,82.88
2018-10-06T02:12:59.770Z,83.38
2018-10-06T02:15:28.382Z,82.54
2018-10-06T02:17:56.960Z,83.09
2018-10-06T02:20:25.744Z,82.68
2018-10-06T02:22:54.713Z,83.15
2018-10-06T02:25:23.485Z,82.61
2018-10-06T02:27:52.155Z,83.04
2018-10-06T02:30:20.863Z,82.94
2018-10-06T02:32:49.842Z,82.85
2018-10-06T02:35:18.501Z,83.29
2018-10-06T02:37:47.042Z,82.73
2018-10-06T02:40:15.841Z,83.29
2018-10-06T02:42:44.401Z,83.01
2018-10-06T02:45:12.966Z,83.20
2018-10-06T02:47:41.530Z,83.18
2018-10-06T02:50:10.467Z,83.46
2018-10-06T02:52:39.068Z,83.10
2018-10-06T02:55:08.020Z,82.97
2018-10-06T02:57:36.630Z,83.94
2018-10-06T03:00:05.718Z,83.84
2018-10-06T03:02:34.358Z,84.09
2018-10-06T03:05:02.986Z,84.11
2018-10-06T03:07:31.549Z,83.11
2018-10-06T03:10:00.221Z,83.22
2018-10-06T03:12:28.770Z,83.31
2018-10-06T03:14:57.497Z,82.43
2018-10-06T03:17:26.197Z,82.84
2018-10-06T03:19:54.817Z,82.47
2018-10-06T03:22:23.454Z,82.71
2018-10-06T03:24:52.023Z,81.99
2018-10-06T03:27:20.649Z,82.70
2018-10-06T03:29:49.414Z,82.76
2018-10-06T03:32:18.089Z,81.88
2018-10-06T03:34:46.952Z,81.71
2018-10-06T03:37:15.601Z,81.56
2018-10-06T03:39:44.139Z,82.04
2018-10-06T03:42:12.854Z,81.18
2018-10-06T03:44:41.406Z,81.94
2018-10-06T03:47:09.957Z,81.09
2018-10-06T03:49:38.509Z,81.03
2018-10-06T03:52:07.350Z,80.94
2018-10-06T03:54:36.170Z,81.63
2018-10-06T03:57:04.802Z,81.30
2018-10-06T03:59:33.487Z,81.21
2018-10-06T04:02:04.113Z,81.02
2018-10-06T04:04:32.693Z,80.36
2018-10-06T04:07:01.454Z,80.18
2018-10-06T04:09:30.111Z,80.46
2018-10-06T04:11:58.899Z,80.17
2018-10-06T04:14:27.551Z,80.11
2018-10-06T04:16:56.161Z,80.23
2018-10-06T04:19:24.731Z,80.63
2018-10-06T04:21:53.278Z,80.42
2018-10-06T04:24:22.084Z,81.07
2018-10-06T04:26:50.613Z,81.03
2018-10-06T04:29:19.297Z,81.70
2018-10-06T04:31:47.936Z,81.75
2018-10-06T04:34:16.544Z,82.16
2018-10-06T04:36:45.246Z,82.42
2018-10-06T04:39:14.236Z,81.96
2018-10-06T04:41:42.822Z,83.03
2018-10-06T04:44:11.451Z,82.37
2018-10-06T04:46:40.496Z,83.17
2018-10-06T04:49:09.291Z,82.20
2018-10-06T04:51:37.978Z,82.57
2018-10-06T04:54:06.574Z,82.37
2018-10-06T04:56:35.150Z,82.44
2018-10-06T04:59:03.832Z,82.27
2018-10-06T05:01:32.378Z,82.32
2018-10-06T05:04:01.263Z,82.48
2018-10-06T05:06:29.882Z,81.68
2018-10-06T05:08:58.760Z,81.94
2018-10-06T05:11:27.381Z,82.60
2018-10-06T05:13:56.263Z,81.71
2018-10-06T05:16:24.837Z,81.17
2018-10-06T05:21:26.303Z,81.39
2018-10-06T05:23:55.232Z,80.47
2018-10-06T05:26:24.002Z,80.21
2018-10-06T05:28:52.969Z,79.30
2018-10-06T05:31:22.030Z,78.49
2018-10-06T05:33:50.755Z,77.81
2018-10-06T05:36:19.477Z,78.08
2018-10-06T05:38:48.085Z,77.68
2018-10-06T05:41:16.610Z,77.04
2018-10-06T05:43:45.193Z,77.25
2018-10-06T05:46:14.442Z,77.13
2018-10-06T05:48:43.270Z,76.57
2018-10-06T05:51:11.963Z,76.37
2018-10-06T05:53:40.770Z,76.50
2018-10-06T05:56:09.466Z,75.92
2018-10-06T05:58:38.174Z,76.02
2018-10-06T06:01:07.182Z,75.58
2018-10-06T06:03:36.374Z,75.12
2018-10-06T06:06:05.875Z,74.98
2018-10-06T06:08:34.559Z,74.05
2018-10-06T06:11:03.330Z,72.56
2018-10-06T06:13:32.133Z,72.41
2018-10-06T06:16:01.413Z,70.48
2018-10-06T06:18:30.717Z,66.32
2018-10-06T06:20:59.473Z,62.40
2018-10-06T06:23:28.137Z,58.71
2018-10-06T06:25:56.689Z,57.06
2018-10-06T06:28:25.750Z,55.43
2018-10-06T06:30:54.383Z,52.72
2018-10-06T06:33:23.986Z,49.91
2018-10-06T06:35:53.280Z,49.07
2018-10-06T06:38:22.212Z,48.68
2018-10-06T06:40:52.007Z,46.59
2018-10-06T06:43:21.686Z,45.95
2018-10-06T06:45:50.453Z,44.79
2018-10-06T06:48:20.231Z,44.67
2018-10-06T06:50:48.982Z,44.67
2018-10-06T06:53:17.847Z,44.32
2018-10-06T06:55:46.530Z,44.51
2018-10-06T06:58:15.970Z,45.36
2018-10-06T07:00:44.861Z,44.84
2018-10-06T07:03:13.659Z,43.34
2018-10-06T07:05:42.694Z,43.06
2018-10-06T07:08:13.678Z,42.13
2018-10-06T07:13:11.101Z,41.18
2018-10-06T07:15:39.838Z,40.89
2018-10-06T07:18:08.563Z,41.38
2018-10-06T07:20:37.370Z,41.31
2018-10-06T07:23:05.950Z,40.41
2018-10-06T07:25:35.306Z,40.56
2018-10-06T07:28:04.303Z,39.01
2018-10-06T07:30:34.107Z,38.47
2018-10-06T07:33:03.010Z,38.35
2018-10-06T07:35:31.905Z,39.07
2018-10-06T07:38:01.728Z,38.02
2018-10-06T07:40:30.294Z,37.06
2018-10-06T07:42:58.958Z,36.58
2018-10-06T07:45:28.072Z,38.38
2018-10-06T07:47:56.825Z,37.60
2018-10-06T07:50:25.762Z,37.91
2018-10-06T07:52:55.375Z,38.44
2018-10-06T07:55:30.629Z,38.09
2018-10-06T07:57:59.700Z,36.55
2018-10-06T08:00:28.395Z,35.51
2018-10-06T08:02:57.450Z,35.84
2018-10-06T08:05:27.075Z,34.81
2018-10-06T08:07:55.813Z,33.55
2018-10-06T08:10:24.493Z,33.82
2018-10-06T08:12:53.539Z,35.31
2018-10-06T08:15:23.648Z,35.58
2018-10-06T08:17:52.210Z,35.23
2018-10-06T08:20:21.606Z,36.87
2018-10-06T08:22:50.388Z,37.15
2018-10-06T08:25:19.158Z,38.78
2018-10-06T08:27:48.405Z,40.30
2018-10-06T08:30:17.850Z,41.90
2018-10-06T08:32:47.054Z,42.48
2018-10-06T08:35:16.229Z,44.44
2018-10-06T08:37:45.031Z,43.59
2018-10-06T08:40:13.660Z,44.41
2018-10-06T08:42:42.944Z,44.18
2018-10-06T08:45:11.682Z,43.10
2018-10-06T08:47:40.253Z,43.38
2018-10-06T08:50:08.794Z,43.12
2018-10-06T08:52:37.524Z,43.47
2018-10-06T08:55:06.261Z,44.34
2018-10-06T08:57:34.978Z,44.19
2018-10-06T09:00:03.616Z,43.40
2018-10-06T09:02:32.178Z,44.49
2018-10-06T09:05:00.782Z,44.04
2018-10-06T09:07:29.814Z,44.11
2018-10-06T09:09:58.495Z,44.99
2018-10-06T09:12:28.134Z,44.78
2018-10-06T09:14:56.787Z,44.43
2018-10-06T09:17:26.574Z,43.73
2018-10-06T09:19:55.353Z,44.77
2018-10-06T09:22:24.729Z,43.84
2018-10-06T09:24:53.369Z,44.70
2018-10-06T09:27:22.630Z,45.20
2018-10-06T09:29:52.025Z,44.71
2018-10-06T09:32:20.705Z,45.07
2018-10-06T09:34:49.952Z,44.83
2018-10-06T09:37:18.598Z,45.26
2018-10-06T09:39:47.355Z,44.76
2018-10-06T09:42:16.487Z,45.38
2018-10-06T09:44:45.332Z,44.64
2018-10-06T09:47:13.953Z,44.84
2018-10-06T09:49:42.538Z,44.93
2018-10-06T09:52:11.120Z,45.32
2018-10-06T09:54:39.809Z,44.41
2018-10-06T09:57:08.421Z,44.13
2018-10-06T09:59:37.097Z,45.50
2018-10-06T10:02:10.130Z,44.56
2018-10-06T10:04:39.259Z,43.55
2018-10-06T10:07:08.853Z,45.32
2018-10-06T10:09:38.610Z,45.91
2018-10-06T10:12:07.897Z,45.07
2018-10-06T10:14:36.517Z,44.31
2018-10-06T10:17:05.310Z,44.22
2018-10-06T10:19:33.990Z,45.04
2018-10-06T10:22:02.707Z,45.22
2018-10-06T10:24:31.496Z,44.13
2018-10-06T10:27:00.497Z,44.70
2018-10-06T10:29:29.898Z,46.45
2018-10-06T10:31:58.568Z,45.82
2018-10-06T10:34:27.230Z,45.53
2018-10-06T10:36:55.974Z,44.11
2018-10-06T10:39:24.658Z,45.54
2018-10-06T10:41:53.487Z,44.55
2018-10-06T10:44:22.225Z,45.03
2018-10-06T10:46:51.545Z,43.66
2018-10-06T10:49:20.321Z,43.80
2018-10-06T10:51:48.945Z,44.95
2018-10-06T10:54:17.945Z,43.83
2018-10-06T10:56:46.516Z,44.01
2018-10-06T10:59:15.949Z,45.18
2018-10-06T11:01:44.510Z,45.24
2018-10-06T11:04:13.080Z,44.70
2018-10-06T11:06:42.745Z,44.01
2018-10-06T11:09:11.523Z,43.10
2018-10-06T11:11:40.165Z,43.10
2018-10-06T11:14:08.819Z,44.12
2018-10-06T11:16:37.357Z,43.18
2018-10-06T11:19:05.950Z,43.32
2018-10-06T11:21:34.496Z,44.30
2018-10-06T11:24:03.617Z,43.26
2018-10-06T11:26:32.372Z,43.39
2018-10-06T11:29:01.439Z,43.74
2018-10-06T11:31:30.404Z,43.28
2018-10-06T11:33:59.022Z,43.21
2018-10-06T11:36:27.631Z,43.79
2018-10-06T11:38:56.199Z,44.07
2018-10-06T11:41:24.794Z,42.03
2018-10-06T11:46:34.714Z,39.89
2018-10-06T11:49:03.322Z,41.50
2018-10-06T11:51:31.990Z,40.41
2018-10-06T11:54:00.606Z,41.21
2018-10-06T11:56:29.188Z,42.35
2018-10-06T11:58:57.880Z,41.39
2018-10-06T12:01:26.453Z,40.08
2018-10-06T12:03:55.004Z,41.57
2018-10-06T12:06:23.653Z,40.07
2018-10-06T12:08:52.261Z,41.17
2018-10-06T12:11:21.016Z,41.33
2018-10-06T12:13:49.582Z,41.63
2018-10-06T12:16:18.169Z,41.26
2018-10-06T12:18:46.753Z,39.57
2018-10-06T12:21:15.331Z,39.85
2018-10-06T12:23:44.635Z,39.91
2018-10-06T12:26:13.898Z,39.97
2018-10-06T12:28:42.614Z,40.47
2018-10-06T12:31:11.225Z,40.25
2018-10-06T12:33:39.971Z,40.15
2018-10-06T12:36:08.599Z,40.40
2018-10-06T12:38:37.757Z,40.60
2018-10-06T12:41:07.030Z,40.17
2018-10-06T12:43:35.618Z,40.77
2018-10-06T12:46:04.961Z,40.07
2018-10-06T12:48:33.734Z,40.53
2018-10-06T12:51:02.287Z,39.87
2018-10-06T12:53:30.862Z,39.50
2018-10-06T12:55:59.485Z,39.77
2018-10-06T12:58:28.108Z,40.98
2018-10-06T13:00:56.713Z,39.71
2018-10-06T13:03:25.427Z,40.94
2018-10-06T13:05:54.007Z,40.86
2018-10-06T13:08:22.669Z,41.15
2018-10-06T13:10:51.268Z,39.92
2018-10-06T13:13:19.813Z,40.19
2018-10-06T13:15:48.395Z,40.66
2018-10-06T13:18:16.993Z,40.52
2018-10-06T13:20:45.689Z,40.23
2018-10-06T13:23:14.262Z,41.53
2018-10-06T13:25:42.831Z,40.03
2018-10-06T13:28:11.959Z,39.50
2018-10-06T13:30:41.481Z,38.33
2018-10-06T13:33:10.873Z,40.65
2018-10-06T13:35:39.460Z,40.35
2018-10-06T13:38:07.994Z,40.33
2018-10-06T13:40:36.690Z,39.08
2018-10-06T13:43:05.953Z,39.71
2018-10-06T13:45:34.677Z,40.98
2018-10-06T13:48:03.929Z,40.92
2018-10-06T13:50:32.512Z,41.09
2018-10-06T13:53:01.059Z,41.19
2018-10-06T13:55:29.587Z,41.06
2018-10-06T13:57:58.807Z,41.94
2018-10-06T14:00:27.984Z,41.52
2018-10-06T14:02:56.704Z,41.95
2018-10-06T14:05:25.411Z,41.65
2018-10-06T14:07:53.954Z,42.19
2018-10-06T14:10:22.552Z,42.67
2018-10-06T14:12:51.095Z,41.37
2018-10-06T14:15:19.643Z,41.95
2018-10-06T14:17:48.850Z,41.94
2018-10-06T14:20:18.147Z,42.83
2018-10-06T14:22:47.410Z,42.09
2018-10-06T14:25:16.812Z,42.31
2018-10-06T14:27:47.529Z,42.37
2018-10-06T14:30:16.178Z,42.05
2018-10-06T14:32:44.816Z,42.99
2018-10-06T14:35:13.478Z,42.92
2018-10-06T14:37:42.045Z,44.20
2018-10-06T14:40:10.599Z,43.55
2018-10-06T14:42:39.489Z,43.39
2018-10-06T14:45:08.439Z,43.45
2018-10-06T14:47:37.763Z,44.21
2018-10-06T14:50:06.913Z,44.19
2018-10-06T14:52:35.622Z,44.32
2018-10-06T14:57:33.444Z,45.52
2018-10-06T15:00:02.055Z,45.72
2018-10-06T15:02:30.642Z,45.85
2018-10-06T15:04:59.278Z,46.50
2018-10-06T15:07:28.016Z,47.28
2018-10-06T15:09:56.598Z,47.66
2018-10-06T15:12:25.282Z,47.30
2018-10-06T15:14:53.855Z,47.80
2018-10-06T15:17:22.430Z,48.47
2018-10-06T15:19:51.082Z,49.57
2018-10-06T15:22:19.907Z,49.28
2018-10-06T15:24:48.760Z,49.43
2018-10-06T15:27:17.478Z,51.18
2018-10-06T15:29:46.136Z,50.94
2018-10-06T15:32:15.055Z,49.96
2018-10-06T15:34:43.633Z,49.48
2018-10-06T15:37:12.386Z,49.89
2018-10-06T15:39:40.972Z,49.60
2018-10-06T15:42:09.592Z,49.98
2018-10-06T15:44:38.177Z,49.74
2018-10-06T15:47:06.731Z,51.08
2018-10-06T15:49:35.270Z,50.19
2018-10-06T15:52:03.961Z,51.26
2018-10-06T15:54:32.510Z,51.15
2018-10-06T15:57:01.235Z,52.60
2018-10-06T15:59:29.998Z,51.57
2018-10-06T16:01:58.722Z,51.63
2018-10-06T16:04:27.307Z,52.56
2018-10-06T16:06:55.895Z,53.37
2018-10-06T16:09:24.447Z,54.71
2018-10-06T16:11:52.988Z,53.89
2018-10-06T16:14:21.746Z,54.80
2018-10-06T16:16:50.366Z,55.00
2018-10-06T16:19:19.009Z,55.61
2018-10-06T16:21:47.552Z,55.99
2018-10-06T16:24:16.095Z,57.13
2018-10-06T16:26:44.689Z,57.14
2018-10-06T16:29:13.232Z,56.96
2018-10-06T16:31:41.961Z,57.16
2018-10-06T16:34:10.596Z,57.52
2018-10-06T16:36:39.178Z,57.66
2018-10-06T16:39:08.422Z,57.66
2018-10-06T16:41:37.026Z,57.37
2018-10-06T16:44:05.597Z,57.21
2018-10-06T16:46:34.548Z,58.02
2018-10-06T16:49:03.132Z,58.23
2018-10-06T16:51:31.806Z,58.55
2018-10-06T16:54:00.419Z,58.95
2018-10-06T16:56:29.106Z,60.05
2018-10-06T16:58:57.756Z,60.21
2018-10-06T17:01:26.381Z,60.24
2018-10-06T17:03:54.983Z,60.24
2018-10-06T17:06:23.604Z,60.69
2018-10-06T17:08:52.444Z,61.24
2018-10-06T17:11:21.190Z,61.95
2018-10-06T17:13:49.731Z,61.34
2018-10-06T17:16:18.326Z,61.62
2018-10-06T17:18:46.877Z,60.56
2018-10-06T17:21:15.494Z,61.05
2018-10-06T17:23:44.111Z,61.12
2018-10-06T17:26:12.742Z,60.77
2018-10-06T17:28:41.505Z,61.46
2018-10-06T17:33:43.949Z,63.21
2018-10-06T17:36:12.658Z,63.99
2018-10-06T17:38:43.527Z,64.09
2018-10-06T17:41:12.376Z,63.83
2018-10-06T17:43:41.011Z,62.88
2018-10-06T17:46:09.741Z,63.00
2018-10-06T17:48:38.340Z,63.02
2018-10-06T17:51:07.036Z,62.79
2018-10-06T17:53:36.071Z,63.29
2018-10-06T17:56:05.208Z,63.14
2018-10-06T17:58:33.878Z,63.28
2018-10-06T18:01:02.777Z,63.51
2018-10-06T18:03:31.870Z,63.61
2018-10-06T18:06:00.450Z,64.07
2018-10-06T18:08:29.010Z,64.09
2018-10-06T18:10:57.584Z,64.57
2018-10-06T18:13:26.202Z,65.19
2018-10-06T18:15:54.978Z,65.61
2018-10-06T18:18:23.578Z,65.83
2018-10-06T18:20:52.204Z,66.34
2018-10-06T18:23:21.629Z,66.47
2018-10-06T18:25:50.397Z,66.36
2018-10-06T18:28:19.098Z,66.56
2018-10-06T18:30:47.687Z,66.67
2018-10-06T18:33:16.399Z,66.29
2018-10-06T18:35:45.355Z,66.23
2018-10-06T18:38:15.303Z,66.57
2018-10-06T18:40:43.973Z,66.57
2018-10-06T18:43:12.776Z,66.86
2018-10-06T18:45:47.577Z,67.11
2018-10-06T18:48:17.139Z,68.04
2018-10-06T18:50:45.881Z,67.83
2018-10-06T18:53:15.798Z,67.27
2018-10-06T18:55:44.933Z,67.39
2018-10-06T18:58:13.627Z,67.72
2018-10-06T19:00:42.467Z,67.53
2018-10-06T19:03:11.075Z,67.96
2018-10-06T19:05:39.882Z,68.79
2018-10-06T19:08:08.471Z,68.80
2018-10-06T19:10:37.285Z,69.32
2018-10-06T19:13:05.995Z,69.44
2018-10-06T19:15:34.686Z,69.97
2018-10-06T19:18:03.814Z,69.83
2018-10-06T19:20:32.366Z,69.03
2018-10-06T19:23:00.941Z,69.20
2018-10-06T19:25:29.532Z,69.85
2018-10-06T19:27:58.401Z,69.75
2018-10-06T19:30:27.283Z,69.95
2018-10-06T19:32:56.541Z,70.17
2018-10-06T19:35:25.827Z,70.64
2018-10-06T19:37:55.104Z,70.84
2018-10-06T19:40:23.785Z,71.29
2018-10-06T19:42:52.490Z,71.96
2018-10-06T19:45:21.319Z,71.80
2018-10-06T19:47:50.739Z,71.23
2018-10-06T19:50:19.955Z,71.43
2018-10-06T19:52:48.739Z,71.20
2018-10-06T19:55:18.118Z,70.38
2018-10-06T19:57:46.753Z,69.73
2018-10-06T20:00:15.484Z,69.39
2018-10-06T20:02:44.205Z,69.28
2018-10-06T20:05:13.279Z,69.37
2018-10-06T20:07:42.294Z,68.73
2018-10-06T20:10:10.851Z,69.45
2018-10-06T20:12:39.510Z,68.47
2018-10-06T20:15:08.914Z,68.80
2018-10-06T20:17:38.168Z,68.99
2018-10-06T20:20:06.882Z,68.43
2018-10-06T20:22:35.494Z,69.02
2018-10-06T20:25:04.271Z,69.21
2018-10-06T20:27:32.958Z,69.31
2018-10-06T20:30:01.515Z,69.00
2018-10-06T20:32:30.181Z,69.96
2018-10-06T20:34:58.842Z,70.46
2018-10-06T20:37:27.474Z,69.98
2018-10-06T20:39:56.101Z,69.87
2018-10-06T20:42:24.951Z,69.61
2018-10-06T20:44:53.661Z,69.89
2018-10-06T20:47:22.838Z,69.45
2018-10-06T20:49:51.633Z,69.49
2018-10-06T20:52:20.606Z,68.92
2018-10-06T20:54:49.397Z,68.60
2018-10-06T20:57:18.099Z,67.98
2018-10-06T20:59:46.670Z,68.24
2018-10-06T21:02:15.228Z,68.57
2018-10-06T21:04:43.783Z,68.10
2018-10-06T21:07:12.338Z,67.98
2018-10-06T21:09:40.958Z,67.70
2018-10-06T21:12:09.738Z,67.85
2018-10-06T21:14:38.381Z,67.52
2018-10-06T21:17:06.962Z,67.27
2018-10-06T21:19:35.526Z,67.42
2018-10-06T21:22:04.067Z,67.33
2018-10-06T21:24:32.698Z,67.06
2018-10-06T21:27:01.350Z,66.92
2018-10-06T21:29:30.090Z,67.02
2018-10-06T21:31:58.833Z,67.00
2018-10-06T21:34:27.965Z,66.87
2018-10-06T21:36:56.589Z,66.72
2018-10-06T21:39:25.166Z,66.16
2018-10-06T21:42:00.611Z,66.54
2018-10-06T21:44:29.403Z,66.70
2018-10-06T21:46:59.611Z,66.81
2018-10-06T21:49:28.855Z,66.56
2018-10-06T21:51:57.522Z,66.84
2018-10-06T21:54:26.316Z,67.10
2018-10-06T21:56:54.929Z,67.54
2018-10-06T21:59:23.567Z,67.55
2018-10-06T22:01:52.238Z,67.41
2018-10-06T22:04:20.992Z,67.68
2018-10-06T22:06:49.597Z,67.75
2018-10-06T22:09:18.203Z,67.68
2018-10-06T22:11:46.820Z,68.11
2018-10-06T22:14:15.404Z,67.67
2018-10-06T22:16:43.987Z,67.77
2018-10-06T22:19:13.088Z,67.81
2018-10-06T22:21:41.983Z,67.96
2018-10-06T22:24:10.689Z,67.94
2018-10-06T22:26:39.300Z,67.67
2018-10-06T22:29:07.870Z,68.22
2018-10-06T22:31:36.454Z,68.63
2018-10-06T22:34:05.009Z,68.67
2018-10-06T22:36:33.688Z,68.43
2018-10-06T22:39:02.729Z,68.42
2018-10-06T22:41:31.390Z,68.23
2018-10-06T22:44:00.052Z,68.44
2018-10-06T22:46:28.726Z,68.71
2018-10-06T22:48:57.409Z,69.07
2018-10-06T22:51:26.193Z,69.37
2018-10-06T22:53:54.779Z,69.34
2018-10-06T22:56:24.317Z,69.03
2018-10-06T22:58:52.949Z,69.47
2018-10-06T23:01:21.571Z,69.50
2018-10-06T23:03:50.123Z,70.45
2018-10-06T23:06:18.673Z,70.71
2018-10-06T23:08:47.240Z,70.35
2018-10-06T23:11:15.778Z,70.85
2018-10-06T23:13:44.549Z,71.00
2018-10-06T23:16:13.188Z,71.67
2018-10-06T23:18:41.736Z,72.44
2018-10-06T23:21:10.360Z,72.17
2018-10-06T23:23:38.944Z,72.71
2018-10-06T23:26:07.577Z,71.89
2018-10-06T23:28:36.313Z,72.27
2018-10-06T23:31:05.101Z,72.17
2018-10-06T23:33:33.824Z,72.63
2018-10-06T23:36:02.590Z,72.84
2018-10-06T23:38:31.194Z,72.20
2018-10-06T23:40:59.766Z,72.72
2018-10-06T23:43:28.324Z,71.98
2018-10-06T23:45:56.896Z,71.91
2018-10-06T23:48:25.686Z,72.24
2018-10-06T23:50:54.367Z,72.53
2018-10-06T23:53:22.962Z,72.67
2018-10-06T23:55:51.622Z,72.61
2018-10-06T23:58:20.202Z,72.38
